Time;durP1;ratioP1;P1;durP2;ratioP2;P2;SDS_P1;SDS_P2;PMS_P1;PMS_P2;Temp;Humidity;BMP_temperature;BMP_pressure;BME280_temperature;BME280_humidity;BME280_pressure;Samples;Min_cycle;Max_cycle;Signal;HPM_P1;HPM_P2
2022/06/15 00:01:12;;;;;;;4.45;2.20;;;;;;;;;;5050951;28;20382;-73
2022/06/15 00:03:37;;;;;;;2.53;1.65;;;;;;;;;;5034437;28;20063;-75
2022/06/15 00:06:08;;;;;;;4.60;2.20;;;;;;;;;;5034748;28;20022;-73
2022/06/15 00:08:33;;;;;;;6.13;2.50;;;;;;;;;;5034420;28;20032;-74
2022/06/15 00:11:11;;;;;;;3.85;2.30;;;;;;;;;;5031993;28;20041;-74
2022/06/15 00:13:36;;;;;;;3.22;2.20;;;;;;;;;;5033080;28;20028;-74
2022/06/15 00:16:03;;;;;;;6.47;2.83;;;;;;;;;;5033457;28;20022;-74
2022/06/15 00:18:45;;;;;;;7.68;2.65;;;;;;;;;;5034286;28;20279;-74
2022/06/15 00:21:10;;;;;;;;;;;;;;;;;;5034898;28;20032;-74
2022/06/15 00:23:40;;;;;;;5.07;2.05;;;;;;;;;;5034035;28;19999;-75
2022/06/15 00:26:05;;;;;;;3.85;1.90;;;;;;;;;;5034433;28;20071;-74
2022/06/15 00:28:32;;;;;;;3.20;2.40;;;;;;;;;;5032837;28;20425;-75
2022/06/15 00:30:59;;;;;;;3.30;2.17;;;;;;;;;;5033932;28;20025;-75
2022/06/15 00:33:26;;;;;;;4.65;2.58;;;;;;;;;;5032887;28;20466;-75
2022/06/15 00:35:57;;;;;;;6.72;2.40;;;;;;;;;;5033928;28;20063;-74
2022/06/15 00:38:25;;;;;;;3.97;2.38;;;;;;;;;;5034007;28;20411;-74
2022/06/15 00:40:50;;;;;;;3.80;2.33;;;;;;;;;;5032601;28;20044;-74
2022/06/15 00:43:38;;;;;;;5.23;2.07;;;;;;;;;;5033816;28;20034;-73
2022/06/15 00:46:22;;;;;;;2.20;1.92;;;;;;;;;;5033687;28;20272;-73
2022/06/15 00:48:56;;;;;;;3.65;2.28;;;;;;;;;;5033796;28;20037;-74
2022/06/15 00:51:22;;;;;;;3.20;1.92;;;;;;;;;;5032557;28;20154;-73
2022/06/15 00:53:48;;;;;;;3.00;2.25;;;;;;;;;;5032457;28;20057;-75
2022/06/15 00:56:14;;;;;;;4.65;2.28;;;;;;;;;;5032468;28;20402;-75
2022/06/15 00:58:43;;;;;;;4.75;2.17;;;;;;;;;;5034391;28;20108;-76
2022/06/15 01:01:08;;;;;;;2.92;2.22;;;;;;;;;;5033598;28;20045;-75
2022/06/15 01:03:34;;;;;;;4.35;2.25;;;;;;;;;;5034018;28;20025;-76
2022/06/15 01:06:03;;;;;;;4.38;3.03;;;;;;;;;;5032661;28;20036;-76
2022/06/15 01:08:36;;;;;;;2.60;2.20;;;;;;;;;;5035118;28;20068;-76
2022/06/15 01:11:04;;;;;;;5.68;2.30;;;;;;;;;;5033077;28;20049;-76
2022/06/15 01:13:40;;;;;;;3.78;2.33;;;;;;;;;;5033941;28;20029;-76
2022/06/15 01:16:14;;;;;;;4.32;2.13;;;;;;;;;;5033658;28;20017;-76
2022/06/15 01:18:46;;;;;;;6.65;2.65;;;;;;;;;;5033797;28;20056;-76
2022/06/15 01:21:13;;;;;;;2.25;1.92;;;;;;;;;;5035496;28;20034;-77
2022/06/15 01:23:39;;;;;;;6.72;2.47;;;;;;;;;;5035400;28;20481;-77
2022/06/15 01:26:23;;;;;;;3.97;2.22;;;;;;;;;;5035889;28;20028;-76
2022/06/15 01:29:13;;;;;;;6.22;2.85;;;;;;;;;;5038462;28;20504;-77
2022/06/15 01:32:00;;;;;;;4.47;1.90;;;;;;;;;;5036966;28;20052;-75
2022/06/15 01:34:29;;;;;;;5.97;2.05;;;;;;;;;;5036655;28;20151;-75
2022/06/15 01:36:57;;;;;;;3.55;2.00;;;;;;;;;;5037420;28;20152;-75
2022/06/15 01:39:26;;;;;;;4.97;2.13;;;;;;;;;;5037196;28;20029;-76
2022/06/15 01:41:58;;;;;;;3.97;1.98;;;;;;;;;;5036418;28;20033;-76
2022/06/15 01:44:44;;;;;;;6.00;2.00;;;;;;;;;;5037448;28;20026;-75
2022/06/15 01:47:19;;;;;;;8.23;2.22;;;;;;;;;;5036949;28;20081;-76
2022/06/15 01:49:57;;;;;;;3.65;2.42;;;;;;;;;;5037092;28;20136;-76
2022/06/15 01:52:32;;;;;;;5.70;2.30;;;;;;;;;;5037480;28;20021;-75
2022/06/15 01:55:05;;;;;;;4.20;1.95;;;;;;;;;;5037048;28;20490;-75
2022/06/15 01:57:32;;;;;;;5.10;2.25;;;;;;;;;;5037043;28;20029;-74
2022/06/15 02:00:06;;;;;;;3.47;2.10;;;;;;;;;;5035882;28;20048;-75
2022/06/15 02:02:40;;;;;;;7.68;2.05;;;;;;;;;;5037773;28;20469;-75
2022/06/15 02:05:07;;;;;;;4.95;1.75;;;;;;;;;;5035712;28;20025;-75
2022/06/15 02:07:36;;;;;;;2.97;1.95;;;;;;;;;;5037030;28;20036;-75
2022/06/15 02:10:16;;;;;;;6.10;2.33;;;;;;;;;;5036365;28;20128;-75
2022/06/15 02:12:53;;;;;;;2.90;2.08;;;;;;;;;;5036892;28;20025;-76
2022/06/15 02:15:25;;;;;;;5.63;2.42;;;;;;;;;;5037819;28;20018;-76
2022/06/15 02:18:00;;;;;;;4.75;2.17;;;;;;;;;;5036056;28;20037;-74
2022/06/15 02:20:29;;;;;;;4.35;1.92;;;;;;;;;;5037226;28;20037;-75
2022/06/15 02:22:59;;;;;;;6.30;2.60;;;;;;;;;;5035473;28;20034;-75
2022/06/15 02:25:30;;;;;;;4.55;2.22;;;;;;;;;;5036420;28;20466;-75
2022/06/15 02:27:57;;;;;;;6.43;2.90;;;;;;;;;;5038335;28;20115;-75
2022/06/15 02:30:31;;;;;;;4.15;2.53;;;;;;;;;;5039001;28;20025;-74
2022/06/15 02:33:19;;;;;;;4.78;2.90;;;;;;;;;;5038019;28;20060;-76
2022/06/15 02:35:45;;;;;;;5.13;2.80;;;;;;;;;;5036614;28;20463;-75
2022/06/15 02:38:11;;;;;;;3.20;2.10;;;;;;;;;;5036624;28;20082;-77
2022/06/15 02:40:36;;;;;;;4.40;2.60;;;;;;;;;;5035686;28;20347;-76
2022/06/15 02:43:02;;;;;;;6.30;2.90;;;;;;;;;;5035211;28;20462;-76
2022/06/15 02:45:31;;;;;;;6.90;3.35;;;;;;;;;;5035342;28;20080;-77
2022/06/15 02:47:56;;;;;;;6.00;2.90;;;;;;;;;;5034877;28;20029;-76
2022/06/15 02:50:26;;;;;;;3.65;2.47;;;;;;;;;;5034597;28;20033;-76
2022/06/15 02:52:59;;;;;;;6.53;2.83;;;;;;;;;;5034799;28;20074;-76
2022/06/15 02:55:26;;;;;;;4.78;3.10;;;;;;;;;;5034725;28;20036;-76
2022/06/15 02:57:53;;;;;;;4.63;2.60;;;;;;;;;;5034770;28;20078;-75
2022/06/15 03:00:22;;;;;;;3.95;3.00;;;;;;;;;;5034561;28;20124;-76
2022/06/15 03:02:49;;;;;;;2.90;2.58;;;;;;;;;;5018172;28;20033;-76
2022/06/15 03:05:14;;;;;;;5.20;3.13;;;;;;;;;;5035998;28;20033;-76
2022/06/15 03:07:39;;;;;;;8.43;3.08;;;;;;;;;;5035895;28;20021;-76
2022/06/15 03:10:06;;;;;;;4.68;2.60;;;;;;;;;;5033941;28;20046;-76
2022/06/15 03:12:32;;;;;;;4.72;3.15;;;;;;;;;;5034354;28;20028;-75
2022/06/15 03:14:57;;;;;;;5.82;3.30;;;;;;;;;;5035609;28;20104;-75
2022/06/15 03:17:22;;;;;;;5.35;2.78;;;;;;;;;;5034236;28;20033;-76
2022/06/15 03:19:48;;;;;;;5.40;3.45;;;;;;;;;;5034198;28;20064;-76
2022/06/15 03:22:15;;;;;;;8.13;3.63;;;;;;;;;;5035551;28;20102;-76
2022/06/15 03:24:40;;;;;;;8.98;4.80;;;;;;;;;;5034044;28;20026;-76
2022/06/15 03:27:06;;;;;;;9.97;3.43;;;;;;;;;;5035324;28;20036;-77
2022/06/15 03:29:33;;;;;;;8.20;3.30;;;;;;;;;;5035349;28;20275;-77
2022/06/15 03:31:58;;;;;;;4.72;2.85;;;;;;;;;;5035268;28;20021;-76
2022/06/15 03:34:23;;;;;;;5.07;3.45;;;;;;;;;;5035482;28;20014;-76
2022/06/15 03:36:49;;;;;;;5.70;3.30;;;;;;;;;;5035676;28;20439;-76
2022/06/15 03:39:16;;;;;;;6.30;3.30;;;;;;;;;;5035236;28;20144;-75
2022/06/15 03:41:43;;;;;;;6.20;3.30;;;;;;;;;;5034951;28;20390;-76
2022/06/15 03:44:10;;;;;;;3.00;2.60;;;;;;;;;;5034998;28;20363;-75
2022/06/15 03:46:35;;;;;;;4.70;2.63;;;;;;;;;;5033534;28;20017;-76
2022/06/15 03:49:02;;;;;;;5.20;2.72;;;;;;;;;;5034894;28;20053;-76
2022/06/15 03:51:28;;;;;;;4.90;3.30;;;;;;;;;;5033328;28;20418;-76
2022/06/15 03:53:54;;;;;;;5.78;2.72;;;;;;;;;;5035053;28;20026;-75
2022/06/15 03:56:21;;;;;;;5.32;2.80;;;;;;;;;;5034933;28;20032;-77
2022/06/15 03:58:48;;;;;;;3.75;2.85;;;;;;;;;;5034794;28;20048;-77
2022/06/15 04:01:13;;;;;;;8.45;3.45;;;;;;;;;;5035226;28;20029;-76
2022/06/15 04:03:38;;;;;;;4.97;3.97;;;;;;;;;;5034523;28;20112;-78
2022/06/15 04:06:04;;;;;;;5.90;3.25;;;;;;;;;;5033256;28;20367;-78
2022/06/15 04:08:42;;;;;;;4.85;3.78;;;;;;;;;;5016817;28;20033;-76
2022/06/15 04:11:58;;;;;;;4.72;3.30;;;;;;;;;;5018151;28;20137;-76
2022/06/15 04:14:04;;;;;;;6.40;3.55;;;;;;;;;;5034246;28;20026;-76
2022/06/15 04:16:29;;;;;;;4.43;3.10;;;;;;;;;;5034384;28;20474;-76
2022/06/15 04:19:02;;;;;;;8.38;3.92;;;;;;;;;;5034546;28;20044;-76
2022/06/15 04:21:36;;;;;;;4.85;3.30;;;;;;;;;;5034420;28;20104;-76
2022/06/15 04:24:01;;;;;;;9.65;6.80;;;;;;;;;;5034136;28;20021;-75
2022/06/15 04:26:27;;;;;;;6.50;3.70;;;;;;;;;;5034635;28;20462;-76
2022/06/15 04:28:54;;;;;;;8.88;3.58;;;;;;;;;;5034437;28;20025;-76
2022/06/15 04:31:20;;;;;;;5.88;3.17;;;;;;;;;;5034268;28;20022;-76
2022/06/15 04:33:46;;;;;;;5.57;3.70;;;;;;;;;;5034152;28;20026;-76
2022/06/15 04:36:16;;;;;;;7.63;3.63;;;;;;;;;;5032949;28;20025;-75
2022/06/15 04:38:42;;;;;;;5.35;3.70;;;;;;;;;;5034681;28;20024;-77
2022/06/15 04:41:08;;;;;;;9.32;3.95;;;;;;;;;;5034826;28;20390;-76
2022/06/15 04:43:34;;;;;;;10.32;4.05;;;;;;;;;;5032929;28;20026;-73
2022/06/15 04:46:00;;;;;;;4.97;3.78;;;;;;;;;;5033641;28;20032;-73
2022/06/15 04:48:27;;;;;;;5.30;3.58;;;;;;;;;;5033695;28;20021;-75
2022/06/15 04:50:55;;;;;;;6.68;3.33;;;;;;;;;;5033949;28;20033;-73
2022/06/15 04:53:22;;;;;;;6.65;3.40;;;;;;;;;;5034614;28;20093;-73
2022/06/15 04:55:48;;;;;;;5.13;3.05;;;;;;;;;;5034409;28;20045;-73
2022/06/15 04:58:13;;;;;;;10.07;3.55;;;;;;;;;;5034520;28;20018;-73
2022/06/15 05:00:40;;;;;;;7.45;3.55;;;;;;;;;;5033986;28;20473;-75
2022/06/15 05:03:07;;;;;;;5.28;3.53;;;;;;;;;;5016339;28;20032;-76
2022/06/15 05:05:32;;;;;;;4.60;3.03;;;;;;;;;;5035100;28;20052;-77
2022/06/15 05:07:58;;;;;;;4.85;3.05;;;;;;;;;;5034339;28;20091;-78
2022/06/15 05:10:26;;;;;;;5.07;3.70;;;;;;;;;;5033842;28;20045;-77
2022/06/15 05:12:55;;;;;;;6.97;3.67;;;;;;;;;;5033959;28;20049;-77
2022/06/15 05:15:20;;;;;;;5.10;2.83;;;;;;;;;;5033115;28;20033;-76
2022/06/15 05:17:46;;;;;;;7.82;3.28;;;;;;;;;;5037388;28;20517;-75
2022/06/15 05:20:13;;;;;;;10.32;3.95;;;;;;;;;;5044590;28;20080;-75
2022/06/15 05:22:38;;;;;;;3.80;2.88;;;;;;;;;;5054551;28;20021;-75
2022/06/15 05:25:05;;;;;;;4.05;2.95;;;;;;;;;;5052680;28;20024;-74
2022/06/15 05:27:30;;;;;;;6.03;2.65;;;;;;;;;;5046619;28;20025;-73
2022/06/15 05:29:56;;;;;;;5.72;3.63;;;;;;;;;;5033365;28;20096;-73
2022/06/15 05:32:21;;;;;;;3.85;3.00;;;;;;;;;;5033917;28;20060;-81
2022/06/15 05:34:47;;;;;;;5.60;2.40;;;;;;;;;;5050078;28;20025;-85
2022/06/15 05:37:12;;;;;;;3.33;2.22;;;;;;;;;;5040496;28;20484;-76
2022/06/15 05:39:38;;;;;;;6.05;3.10;;;;;;;;;;5034419;28;20562;-81
2022/06/15 05:42:04;;;;;;;5.10;2.45;;;;;;;;;;5036526;28;20016;-80
2022/06/15 05:47:05;;;;;;;4.15;2.40;;;;;;;;;;5035945;28;20474;-78
2022/06/15 05:49:30;;;;;;;5.53;2.55;;;;;;;;;;5073008;28;20099;-78
2022/06/15 05:51:55;;;;;;;3.85;1.92;;;;;;;;;;5079237;28;20511;-78
2022/06/15 05:54:21;;;;;;;5.60;2.30;;;;;;;;;;5073283;28;20104;-85
2022/06/15 05:56:46;;;;;;;5.20;1.98;;;;;;;;;;5072852;28;20032;-81
2022/06/15 05:59:13;;;;;;;5.35;2.75;;;;;;;;;;5071749;28;20048;-78
2022/06/15 06:01:38;;;;;;;2.50;1.52;;;;;;;;;;5071165;28;20428;-80
2022/06/15 06:04:05;;;;;;;3.15;1.60;;;;;;;;;;5040183;28;20051;-78
2022/06/15 06:06:32;;;;;;;2.92;1.52;;;;;;;;;;5033745;28;20033;-84
2022/06/15 06:08:58;;;;;;;1.77;1.50;;;;;;;;;;5033295;28;20032;-79
2022/06/15 06:11:23;;;;;;;2.60;1.67;;;;;;;;;;5030608;28;20592;-82
2022/06/15 06:13:49;;;;;;;2.42;1.52;;;;;;;;;;5034201;28;20034;-82
2022/06/15 06:16:14;;;;;;;4.38;2.00;;;;;;;;;;5036256;28;20029;-79
2022/06/15 06:18:39;;;;;;;3.10;1.80;;;;;;;;;;5064632;28;20028;-82
2022/06/15 06:21:05;;;;;;;2.33;1.20;;;;;;;;;;5074539;28;20290;-79
2022/06/15 06:23:33;;;;;;;3.42;1.70;;;;;;;;;;5034731;28;20303;-74
2022/06/15 06:25:58;;;;;;;1.40;1.20;;;;;;;;;;5039703;28;20028;-75
2022/06/15 06:28:39;;;;;;;3.78;1.25;;;;;;;;;;5052734;28;20031;-75
2022/06/15 06:31:05;;;;;;;3.25;1.33;;;;;;;;;;5054133;28;20021;-73
2022/06/15 06:33:32;;;;;;;3.88;1.33;;;;;;;;;;5055124;28;20047;-71
2022/06/15 06:35:58;;;;;;;4.10;1.33;;;;;;;;;;5055161;28;20020;-79
2022/06/15 06:38:24;;;;;;;5.15;2.47;;;;;;;;;;5056393;28;20492;-75
2022/06/15 06:40:51;;;;;;;2.92;1.58;;;;;;;;;;5056437;28;20100;-78
2022/06/15 06:43:16;;;;;;;5.25;1.55;;;;;;;;;;5057615;28;20533;-75
2022/06/15 06:45:42;;;;;;;3.00;1.40;;;;;;;;;;5055518;28;20020;-73
2022/06/15 06:48:08;;;;;;;1.95;0.98;;;;;;;;;;5055338;28;20271;-75
2022/06/15 06:50:35;;;;;;;11.23;2.83;;;;;;;;;;5054086;28;20484;-74
2022/06/15 06:53:01;;;;;;;2.42;0.93;;;;;;;;;;5053379;28;20040;-76
2022/06/15 06:55:27;;;;;;;1.60;1.07;;;;;;;;;;5053722;28;20454;-76
2022/06/15 06:57:56;;;;;;;14.57;2.40;;;;;;;;;;5053817;28;20267;-75
2022/06/15 07:00:22;;;;;;;10.00;2.17;;;;;;;;;;5054911;28;20040;-76
2022/06/15 07:02:47;;;;;;;2.55;1.52;;;;;;;;;;5055107;28;20331;-74
2022/06/15 07:05:13;;;;;;;3.27;1.43;;;;;;;;;;5054029;28;20103;-75
2022/06/15 07:07:38;;;;;;;3.50;1.00;;;;;;;;;;5055292;28;20413;-76
2022/06/15 07:10:03;;;;;;;3.05;1.20;;;;;;;;;;5042146;28;20057;-74
2022/06/15 07:12:30;;;;;;;2.15;0.82;;;;;;;;;;5037074;28;20374;-74
2022/06/15 07:14:55;;;;;;;2.60;0.93;;;;;;;;;;5043655;28;20079;-74
2022/06/15 07:17:20;;;;;;;3.20;1.20;;;;;;;;;;5033919;28;20022;-76
2022/06/15 07:19:47;;;;;;;3.85;1.15;;;;;;;;;;5035323;28;20374;-74
2022/06/15 07:22:12;;;;;;;4.75;1.40;;;;;;;;;;5034870;28;20032;-74
2022/06/15 07:24:38;;;;;;;1.47;0.67;;;;;;;;;;5033521;28;20021;-77
2022/06/15 07:27:03;;;;;;;2.37;1.00;;;;;;;;;;5033624;28;20028;-74
2022/06/15 07:29:30;;;;;;;2.95;1.15;;;;;;;;;;5034667;28;20027;-74
2022/06/15 07:31:56;;;;;;;3.25;1.20;;;;;;;;;;5034986;28;20170;-74
2022/06/15 07:34:22;;;;;;;5.15;1.33;;;;;;;;;;5035135;28;20092;-78
2022/06/15 07:36:47;;;;;;;3.20;0.90;;;;;;;;;;5037361;28;20020;-79
2022/06/15 07:39:14;;;;;;;1.73;0.90;;;;;;;;;;5035240;28;20121;-78
2022/06/15 07:41:39;;;;;;;3.85;1.15;;;;;;;;;;5033945;28;20036;-80
2022/06/15 07:44:05;;;;;;;2.53;0.88;;;;;;;;;;5033792;28;20025;-77
2022/06/15 07:46:31;;;;;;;3.95;0.75;;;;;;;;;;5037124;28;20053;-77
2022/06/15 07:51:44;;;;;;;1.17;0.60;;;;;;;;;;5035060;28;20055;-76
2022/06/15 07:54:10;;;;;;;1.50;0.82;;;;;;;;;;5033119;28;20072;-74
2022/06/15 07:56:36;;;;;;;0.98;0.60;;;;;;;;;;5032799;28;20022;-74
2022/06/15 07:59:01;;;;;;;3.08;0.80;;;;;;;;;;5034210;28;20075;-74
2022/06/15 08:01:27;;;;;;;9.00;1.35;;;;;;;;;;5034256;28;20037;-77
2022/06/15 08:03:54;;;;;;;3.33;1.13;;;;;;;;;;5034616;28;20060;-76
2022/06/15 08:06:21;;;;;;;2.20;0.90;;;;;;;;;;5032877;28;20044;-76
2022/06/15 08:08:46;;;;;;;1.50;0.77;;;;;;;;;;5034077;28;20021;-77
2022/06/15 08:11:20;;;;;;;2.20;0.82;;;;;;;;;;5033731;28;20136;-74
2022/06/15 08:13:46;;;;;;;2.55;0.90;;;;;;;;;;5033010;28;20030;-77
2022/06/15 08:16:12;;;;;;;1.60;0.68;;;;;;;;;;5033034;28;20520;-80
2022/06/15 08:18:40;;;;;;;2.05;0.95;;;;;;;;;;5036910;28;20022;-80
2022/06/15 08:21:07;;;;;;;2.88;0.70;;;;;;;;;;5034836;28;20459;-77
2022/06/15 08:23:34;;;;;;;2.83;1.73;;;;;;;;;;5034584;28;20443;-76
2022/06/15 08:26:01;;;;;;;3.33;1.70;;;;;;;;;;5039140;28;20112;-77
2022/06/15 08:28:29;;;;;;;2.33;1.65;;;;;;;;;;5054155;28;20029;-78
2022/06/15 08:30:54;;;;;;;1.27;0.73;;;;;;;;;;5052493;28;20032;-77
2022/06/15 08:33:20;;;;;;;1.60;0.93;;;;;;;;;;5052676;28;20029;-80
2022/06/15 08:35:47;;;;;;;1.50;0.60;;;;;;;;;;5053501;28;20299;-76
2022/06/15 08:38:15;;;;;;;2.35;0.98;;;;;;;;;;5053953;28;20073;-81
2022/06/15 08:40:47;;;;;;;3.83;0.80;;;;;;;;;;5052930;28;20031;-77
2022/06/15 08:43:30;;;;;;;1.45;0.63;;;;;;;;;;5049306;28;20026;-82
2022/06/15 08:46:00;;;;;;;1.75;0.60;;;;;;;;;;5052171;28;20032;-80
2022/06/15 08:48:26;;;;;;;;;;;;;;;;;;5046447;28;20462;-81
2022/06/15 08:50:56;;;;;;;5.13;1.23;;;;;;;;;;5040896;28;19909;-79
2022/06/15 08:53:21;;;;;;;2.13;0.68;;;;;;;;;;5055805;28;20023;-80
2022/06/15 08:56:03;;;;;;;2.83;1.03;;;;;;;;;;5059902;28;20095;-85
2022/06/15 08:58:28;;;;;;;1.92;0.93;;;;;;;;;;5057127;28;20473;-81
2022/06/15 09:00:56;;;;;;;3.23;0.80;;;;;;;;;;5055709;28;20116;-80
2022/06/15 09:03:27;;;;;;;4.65;0.98;;;;;;;;;;5053499;28;20043;-79
2022/06/15 09:06:05;;;;;;;2.88;1.00;;;;;;;;;;5053587;28;20031;-79
2022/06/15 09:08:31;;;;;;;2.10;0.93;;;;;;;;;;5052486;28;20033;-79
2022/06/15 09:11:02;;;;;;;3.93;1.47;;;;;;;;;;5051764;28;20470;-81
2022/06/15 09:14:00;;;;;;;4.05;0.80;;;;;;;;;;5052350;28;20271;-78
2022/06/15 09:16:26;;;;;;;2.15;0.93;;;;;;;;;;5057820;28;20477;-78
2022/06/15 09:19:01;;;;;;;3.43;0.70;;;;;;;;;;5057534;28;20032;-80
2022/06/15 09:21:32;;;;;;;2.08;1.00;;;;;;;;;;5054473;28;20025;-78
2022/06/15 09:24:01;;;;;;;3.17;1.05;;;;;;;;;;5055288;28;20102;-79
2022/06/15 09:26:29;;;;;;;3.70;0.98;;;;;;;;;;5053584;28;20024;-80
2022/06/15 09:29:16;;;;;;;3.63;1.15;;;;;;;;;;5053841;28;20028;-79
2022/06/15 09:31:43;;;;;;;4.28;0.60;;;;;;;;;;5052975;28;20347;-78
2022/06/15 09:34:13;;;;;;;1.45;0.50;;;;;;;;;;5052942;28;20045;-80
2022/06/15 09:36:48;;;;;;;2.08;0.70;;;;;;;;;;5057115;28;20108;-81
2022/06/15 09:39:14;;;;;;;1.88;0.85;;;;;;;;;;5054080;28;20024;-80
2022/06/15 09:41:40;;;;;;;1.40;0.60;;;;;;;;;;5053518;28;20024;-81
2022/06/15 09:44:08;;;;;;;2.33;0.77;;;;;;;;;;5054395;28;20363;-83
2022/06/15 09:46:34;;;;;;;2.15;0.70;;;;;;;;;;5054705;28;20074;-78
2022/06/15 09:49:02;;;;;;;3.73;0.80;;;;;;;;;;5056795;28;20033;-79
2022/06/15 09:51:31;;;;;;;3.55;1.00;;;;;;;;;;5058563;28;20029;-82
2022/06/15 09:54:03;;;;;;;3.10;0.70;;;;;;;;;;5057791;28;20024;-82
2022/06/15 09:56:28;;;;;;;2.38;0.90;;;;;;;;;;5058736;28;20589;-83
2022/06/15 09:58:56;;;;;;;2.97;1.37;;;;;;;;;;5057784;28;20021;-80
2022/06/15 10:01:26;;;;;;;1.05;0.70;;;;;;;;;;5057293;28;20021;-77
2022/06/15 10:03:52;;;;;;;2.88;0.90;;;;;;;;;;5056514;28;20478;-77
2022/06/15 10:06:41;;;;;;;3.13;0.73;;;;;;;;;;5057554;28;20025;-77
2022/06/15 10:09:08;;;;;;;2.28;0.77;;;;;;;;;;5056380;28;20033;-84
2022/06/15 10:11:35;;;;;;;1.42;0.90;;;;;;;;;;5055434;28;20095;-76
2022/06/15 10:14:19;;;;;;;2.72;0.80;;;;;;;;;;5056672;28;20017;-79
2022/06/15 10:17:05;;;;;;;1.67;0.88;;;;;;;;;;5054544;28;20017;-78
2022/06/15 10:19:32;;;;;;;3.78;1.02;;;;;;;;;;5056137;28;20067;-82
2022/06/15 10:21:59;;;;;;;2.42;0.95;;;;;;;;;;5119211;22;20410;-82
2022/06/15 10:24:39;;;;;;;3.40;1.00;;;;;;;;;;5006740;28;20113;-82
2022/06/15 10:27:13;;;;;;;3.38;1.25;;;;;;;;;;5015360;28;20148;-81
2022/06/15 10:29:39;;;;;;;3.70;1.10;;;;;;;;;;5016883;28;20083;-81
2022/06/15 10:32:10;;;;;;;2.08;1.00;;;;;;;;;;5017516;28;20426;-82
2022/06/15 10:34:36;;;;;;;1.90;0.80;;;;;;;;;;5017404;28;20418;-81
2022/06/15 10:37:20;;;;;;;1.63;0.90;;;;;;;;;;5015925;28;20022;-83
2022/06/15 10:39:49;;;;;;;2.85;0.90;;;;;;;;;;5015606;28;20120;-80
2022/06/15 10:42:33;;;;;;;2.13;0.63;;;;;;;;;;5016251;28;20018;-81
2022/06/15 10:45:03;;;;;;;3.20;1.15;;;;;;;;;;5016744;28;20439;-84
2022/06/15 10:47:54;;;;;;;3.63;0.98;;;;;;;;;;5016563;28;20105;-83
2022/06/15 10:50:22;;;;;;;4.75;1.35;;;;;;;;;;5013547;28;20045;-84
2022/06/15 10:52:53;;;;;;;5.50;0.90;;;;;;;;;;5017528;28;20108;-85
2022/06/15 11:04:24;;;;;;;2.90;0.95;;;;;;;;;;5016375;28;20037;-86
2022/06/15 11:06:52;;;;;;;1.70;0.90;;;;;;;;;;5015108;28;20121;-86
2022/06/15 11:09:24;;;;;;;4.22;1.00;;;;;;;;;;5016280;28;20107;-80
2022/06/15 11:11:50;;;;;;;3.70;1.20;;;;;;;;;;5016055;28;20045;-84
2022/06/15 11:14:19;;;;;;;2.80;1.13;;;;;;;;;;5016291;28;20025;-84
2022/06/15 11:19:29;;;;;;;8.57;1.55;;;;;;;;;;5016346;28;20127;-84
2022/06/15 11:21:57;;;;;;;3.22;0.80;;;;;;;;;;5015198;28;20104;-83
2022/06/15 11:24:26;;;;;;;2.53;0.55;;;;;;;;;;5014506;28;20032;-74
2022/06/15 11:26:57;;;;;;;1.33;0.98;;;;;;;;;;5015336;28;20022;-74
2022/06/15 11:29:28;;;;;;;2.53;1.00;;;;;;;;;;5015351;28;20022;-77
2022/06/15 11:31:54;;;;;;;2.15;1.05;;;;;;;;;;5008259;28;20072;-76
2022/06/15 11:34:24;;;;;;;1.48;0.90;;;;;;;;;;4995159;28;20497;-78
2022/06/15 11:36:55;;;;;;;3.50;1.08;;;;;;;;;;4993807;28;20534;-77
2022/06/15 11:39:25;;;;;;;10.15;1.67;;;;;;;;;;4994329;28;20069;-75
2022/06/15 11:41:53;;;;;;;4.78;1.17;;;;;;;;;;4998884;28;20411;-77
2022/06/15 11:44:29;;;;;;;3.95;1.50;;;;;;;;;;5007165;28;20061;-79
2022/06/15 11:47:02;;;;;;;5.55;1.25;;;;;;;;;;5021402;28;20037;-77
2022/06/15 11:49:33;;;;;;;3.15;1.10;;;;;;;;;;5021915;28;20037;-76
2022/06/15 11:52:04;;;;;;;9.95;3.95;;;;;;;;;;5018098;28;20026;-78
2022/06/15 11:54:30;;;;;;;43.22;8.35;;;;;;;;;;5014091;28;20061;-76
2022/06/15 11:56:58;;;;;;;0.65;0.63;;;;;;;;;;5008316;28;20065;-78
2022/06/15 11:59:39;;;;;;;1.15;0.70;;;;;;;;;;4994250;28;20041;-77
2022/06/15 12:02:10;;;;;;;1.80;0.90;;;;;;;;;;4994728;28;20030;-76
2022/06/15 12:04:55;;;;;;;4.18;1.25;;;;;;;;;;4994475;28;20074;-76
2022/06/15 12:07:36;;;;;;;1.25;0.82;;;;;;;;;;4994170;28;20030;-76
2022/06/15 12:10:02;;;;;;;9.18;1.02;;;;;;;;;;4996484;28;20062;-76
2022/06/15 12:12:40;;;;;;;2.42;0.77;;;;;;;;;;5013420;28;20030;-76
2022/06/15 12:15:37;;;;;;;1.20;0.77;;;;;;;;;;5014069;28;20037;-75
2022/06/15 12:18:22;;;;;;;1.52;0.90;;;;;;;;;;5013015;28;20049;-76
2022/06/15 12:20:52;;;;;;;3.25;1.30;;;;;;;;;;5011886;28;20025;-78
2022/06/15 12:23:35;;;;;;;5.97;1.35;;;;;;;;;;5014343;28;20042;-76
2022/06/15 12:26:10;;;;;;;2.40;0.70;;;;;;;;;;5014268;28;20026;-76
2022/06/15 12:28:55;;;;;;;2.08;0.80;;;;;;;;;;5014345;28;20018;-76
2022/06/15 12:31:33;;;;;;;0.82;0.75;;;;;;;;;;5014107;28;20029;-73
2022/06/15 12:34:25;;;;;;;0.50;0.50;;;;;;;;;;5014178;28;20029;-74
2022/06/15 12:36:53;;;;;;;2.63;1.20;;;;;;;;;;5013759;28;20030;-75
2022/06/15 12:39:45;;;;;;;2.13;0.75;;;;;;;;;;5013957;28;20033;-77
2022/06/15 12:42:14;;;;;;;3.05;0.75;;;;;;;;;;5011168;28;20030;-78
2022/06/15 12:44:42;;;;;;;1.80;0.70;;;;;;;;;;5012249;28;20032;-77
2022/06/15 12:47:11;;;;;;;4.03;1.05;;;;;;;;;;5012561;28;20025;-77
2022/06/15 12:49:48;;;;;;;0.70;0.50;;;;;;;;;;5012718;28;20171;-75
2022/06/15 12:52:14;;;;;;;2.67;0.75;;;;;;;;;;5011153;28;20529;-75
2022/06/15 12:54:48;;;;;;;3.60;0.80;;;;;;;;;;5014076;28;20066;-79
2022/06/15 12:57:20;;;;;;;6.07;1.27;;;;;;;;;;5012362;28;20018;-78
2022/06/15 12:59:46;;;;;;;;;;;;;;;;;;5012963;28;20029;-77
2022/06/15 13:02:11;;;;;;;4.72;0.93;;;;;;;;;;5014078;28;19983;-78
2022/06/15 13:04:43;;;;;;;2.80;0.90;;;;;;;;;;5013617;28;20463;-77
2022/06/15 13:07:18;;;;;;;2.28;0.75;;;;;;;;;;5013836;28;20029;-78
2022/06/15 13:10:02;;;;;;;3.83;0.98;;;;;;;;;;5013549;28;20387;-80
2022/06/15 13:12:33;;;;;;;3.47;0.82;;;;;;;;;;5013780;28;20060;-77
2022/06/15 13:14:59;;;;;;;13.15;2.35;;;;;;;;;;5011957;28;20443;-78
2022/06/15 13:18:04;;;;;;;14.50;3.17;;;;;;;;;;5012470;28;20060;-78
2022/06/15 13:20:30;;;;;;;3.60;0.82;;;;;;;;;;5013340;28;20025;-79
2022/06/15 13:22:56;;;;;;;3.35;0.70;;;;;;;;;;5012987;28;20177;-78
2022/06/15 13:25:21;;;;;;;0.80;0.47;;;;;;;;;;5012991;28;20470;-78
2022/06/15 13:28:08;;;;;;;0.38;0.38;;;;;;;;;;5013081;28;20451;-78
2022/06/15 13:30:48;;;;;;;1.92;0.50;;;;;;;;;;5011648;28;20439;-79
2022/06/15 13:33:15;;;;;;;1.33;0.85;;;;;;;;;;5012885;28;20161;-75
2022/06/15 13:36:03;;;;;;;1.00;0.95;;;;;;;;;;5013284;28;20022;-76
2022/06/15 13:38:33;;;;;;;1.90;0.60;;;;;;;;;;5013039;28;20501;-76
2022/06/15 13:40:58;;;;;;;3.17;0.70;;;;;;;;;;5012864;28;20490;-76
2022/06/15 13:43:26;;;;;;;0.87;0.50;;;;;;;;;;5013547;28;20030;-77
2022/06/15 13:45:57;;;;;;;0.93;0.50;;;;;;;;;;4996802;28;20527;-78
2022/06/15 13:48:33;;;;;;;1.15;0.85;;;;;;;;;;5003871;28;20073;-82
2022/06/15 13:51:04;;;;;;;0.88;0.70;;;;;;;;;;4991324;28;20026;-80
2022/06/15 13:53:32;;;;;;;1.60;0.80;;;;;;;;;;5007924;28;20467;-77
2022/06/15 13:56:04;;;;;;;1.60;0.50;;;;;;;;;;4993892;28;20033;-75
2022/06/15 13:58:50;;;;;;;7.97;0.80;;;;;;;;;;4993305;28;20026;-75
2022/06/15 14:01:23;;;;;;;1.70;0.80;;;;;;;;;;5006047;28;20029;-76
2022/06/15 14:03:48;;;;;;;2.75;0.60;;;;;;;;;;5013267;28;20053;-75
2022/06/15 14:06:23;;;;;;;2.30;0.63;;;;;;;;;;5013327;28;20073;-76
2022/06/15 14:08:51;;;;;;;5.45;2.65;;;;;;;;;;5013104;28;20084;-76
2022/06/15 14:11:28;;;;;;;3.58;0.70;;;;;;;;;;5012921;28;20038;-77
2022/06/15 14:14:00;;;;;;;0.98;0.50;;;;;;;;;;5013140;28;20022;-75
2022/06/15 14:16:25;;;;;;;0.60;0.60;;;;;;;;;;5011724;28;20026;-76
2022/06/15 14:19:08;;;;;;;0.90;0.70;;;;;;;;;;5012942;28;20493;-77
2022/06/15 14:21:36;;;;;;;1.77;0.60;;;;;;;;;;5012645;28;20312;-77
2022/06/15 14:24:15;;;;;;;1.20;0.70;;;;;;;;;;5011310;28;20352;-76
2022/06/15 14:26:45;;;;;;;0.60;0.52;;;;;;;;;;5011614;28;20113;-73
2022/06/15 14:29:11;;;;;;;1.10;0.98;;;;;;;;;;5011314;28;20026;-72
2022/06/15 14:31:36;;;;;;;1.17;0.63;;;;;;;;;;5012655;28;20038;-72
2022/06/15 14:34:05;;;;;;;2.75;0.77;;;;;;;;;;5013368;28;20024;-71
2022/06/15 14:36:31;;;;;;;2.47;0.60;;;;;;;;;;5016060;28;20014;-70
2022/06/15 14:39:01;;;;;;;4.75;1.00;;;;;;;;;;5020891;28;20072;-79
2022/06/15 14:41:28;;;;;;;2.60;1.10;;;;;;;;;;5021138;28;20021;-82
2022/06/15 14:43:54;;;;;;;3.22;0.80;;;;;;;;;;5016169;28;20261;-74
2022/06/15 14:46:21;;;;;;;1.40;0.93;;;;;;;;;;5016095;28;20045;-72
2022/06/15 14:48:49;;;;;;;2.20;0.70;;;;;;;;;;5015741;28;20030;-73
2022/06/15 14:51:16;;;;;;;0.95;0.63;;;;;;;;;;5015513;28;20034;-74
2022/06/15 14:53:41;;;;;;;1.33;0.80;;;;;;;;;;5015873;28;20022;-74
2022/06/15 14:56:07;;;;;;;1.57;0.83;;;;;;;;;;5014598;28;20029;-73
2022/06/15 14:58:33;;;;;;;5.10;0.93;;;;;;;;;;5015756;28;20025;-74
2022/06/15 15:01:13;;;;;;;2.65;1.10;;;;;;;;;;5011900;28;20026;-70
2022/06/15 15:03:40;;;;;;;1.75;0.75;;;;;;;;;;5015518;28;20022;-73
2022/06/15 15:06:16;;;;;;;3.50;0.80;;;;;;;;;;5014409;28;20025;-73
2022/06/15 15:08:43;;;;;;;5.13;1.00;;;;;;;;;;5014388;28;20041;-75
2022/06/15 15:13:58;;;;;;;4.28;0.98;;;;;;;;;;4994138;28;20027;-75
2022/06/15 15:16:27;;;;;;;2.03;0.63;;;;;;;;;;4993898;28;20411;-81
2022/06/15 15:18:54;;;;;;;3.25;0.70;;;;;;;;;;4994218;28;20018;-76